createdAt,value
2019-03-18T00:01:01.820Z,1.87
2019-03-18T00:03:32.297Z,1.57
2019-03-18T00:06:02.776Z,1.50
2019-03-18T00:08:33.282Z,2.10
2019-03-18T00:11:03.945Z,1.93
2019-03-18T00:13:34.470Z,2.30
2019-03-18T00:16:05.080Z,2.03
2019-03-18T00:18:35.864Z,2.10
2019-03-18T00:21:06.386Z,1.80
2019-03-18T00:23:37.010Z,2.30
2019-03-18T00:26:10.105Z,2.23
2019-03-18T00:28:40.610Z,2.10
2019-03-18T00:31:13.068Z,1.93
2019-03-18T00:33:46.479Z,1.80
2019-03-18T00:36:22.590Z,1.73
2019-03-18T00:38:53.554Z,1.90
2019-03-18T00:41:29.685Z,1.73
2019-03-18T00:44:03.551Z,1.90
2019-03-18T00:46:34.192Z,1.73
2019-03-18T00:49:05.464Z,2.20
2019-03-18T00:51:36.401Z,1.77
2019-03-18T00:54:08.642Z,2.00
2019-03-18T00:56:39.618Z,2.00
2019-03-18T00:59:10.459Z,2.10
2019-03-18T01:01:41.144Z,2.00
2019-03-18T01:04:11.767Z,2.00
2019-03-18T01:06:42.319Z,1.97
2019-03-18T01:09:12.868Z,1.87
2019-03-18T01:11:43.649Z,1.97
2019-03-18T01:14:14.167Z,2.27
2019-03-18T01:16:46.098Z,2.00
2019-03-18T01:19:16.836Z,2.23
2019-03-18T01:21:49.043Z,2.70
2019-03-18T01:24:22.694Z,1.80
2019-03-18T01:27:00.389Z,2.10
2019-03-18T01:29:27.574Z,2.03
2019-03-18T01:31:58.053Z,2.03
2019-03-18T01:34:28.500Z,1.93
2019-03-18T01:36:59.184Z,2.10
2019-03-18T01:39:29.824Z,2.43
2019-03-18T01:42:00.417Z,2.27
2019-03-18T01:44:31.003Z,2.00
2019-03-18T01:47:02.254Z,2.03
2019-03-18T01:49:32.635Z,2.10
2019-03-18T01:52:04.696Z,2.23
2019-03-18T01:54:35.085Z,2.13
2019-03-18T01:57:05.608Z,2.77
2019-03-18T01:59:36.199Z,2.30
2019-03-18T02:02:07.159Z,2.17
2019-03-18T02:04:37.799Z,2.20
2019-03-18T02:07:08.384Z,1.80
2019-03-18T02:09:45.647Z,2.10
2019-03-18T02:12:15.951Z,2.13
2019-03-18T02:14:46.692Z,2.23
2019-03-18T02:17:17.223Z,2.40
2019-03-18T02:19:47.841Z,2.40
2019-03-18T02:22:18.318Z,2.57
2019-03-18T02:24:48.811Z,2.00
2019-03-18T02:27:19.495Z,2.23
2019-03-18T02:29:49.909Z,1.90
2019-03-18T02:32:20.336Z,2.77
2019-03-18T02:34:50.874Z,2.20
2019-03-18T02:37:21.368Z,1.80
2019-03-18T02:39:51.814Z,2.37
2019-03-18T02:42:24.186Z,2.07
2019-03-18T02:44:54.562Z,1.70
2019-03-18T02:47:43.787Z,2.20
2019-03-18T02:50:14.217Z,2.10
2019-03-18T02:53:03.054Z,2.70
2019-03-18T02:55:38.250Z,1.80
2019-03-18T02:58:08.653Z,1.97
2019-03-18T03:00:39.080Z,2.07
2019-03-18T03:03:09.436Z,1.90
2019-03-18T03:05:39.979Z,1.87
2019-03-18T03:08:11.240Z,2.00
2019-03-18T03:10:43.107Z,2.70
2019-03-18T03:13:14.957Z,2.20
2019-03-18T03:15:45.253Z,2.33
2019-03-18T03:18:15.623Z,2.37
2019-03-18T03:20:45.997Z,2.03
2019-03-18T03:23:17.814Z,2.00
2019-03-18T03:25:48.171Z,2.37
2019-03-18T03:28:18.517Z,2.27
2019-03-18T03:30:49.263Z,2.73
2019-03-18T03:33:19.581Z,2.30
2019-03-18T03:35:51.723Z,2.63
2019-03-18T03:38:22.770Z,2.40
2019-03-18T03:40:53.508Z,2.20
2019-03-18T03:43:23.946Z,2.10
2019-03-18T03:45:54.232Z,2.63
2019-03-18T03:48:24.586Z,2.30
2019-03-18T03:50:54.924Z,2.10
2019-03-18T03:53:25.233Z,2.07
2019-03-18T03:55:55.662Z,2.40
2019-03-18T03:58:26.305Z,2.30
2019-03-18T04:00:57.683Z,2.67
2019-03-18T04:03:38.230Z,2.10
2019-03-18T04:06:00.649Z,2.27
2019-03-18T04:08:30.846Z,2.33
2019-03-18T04:11:02.314Z,2.40
2019-03-18T04:13:32.727Z,2.17
2019-03-18T04:16:03.030Z,2.10
2019-03-18T04:18:33.354Z,2.20
2019-03-18T04:21:03.698Z,2.60
2019-03-18T04:23:34.307Z,2.20
2019-03-18T04:26:07.528Z,2.40
2019-03-18T04:28:37.857Z,2.60
2019-03-18T04:31:08.146Z,2.37
2019-03-18T04:33:39.274Z,2.77
2019-03-18T04:36:10.449Z,2.37
2019-03-18T04:38:40.785Z,2.07
2019-03-18T04:41:12.285Z,2.27
2019-03-18T04:43:43.008Z,2.30
2019-03-18T04:46:14.138Z,1.90
2019-03-18T04:48:45.707Z,2.73
2019-03-18T04:51:16.049Z,1.87
2019-03-18T04:53:46.475Z,2.23
2019-03-18T04:56:16.804Z,2.10
2019-03-18T04:58:50.479Z,2.20
2019-03-18T05:01:21.637Z,1.70
2019-03-18T05:03:52.186Z,2.43
2019-03-18T05:06:22.658Z,2.40
2019-03-18T05:08:53.233Z,2.30
2019-03-18T05:11:25.069Z,2.17
2019-03-18T05:13:55.515Z,2.30
2019-03-18T05:16:34.864Z,2.87
2019-03-18T05:19:05.418Z,2.60
2019-03-18T05:21:35.937Z,2.50
2019-03-18T05:24:24.973Z,2.10
2019-03-18T05:26:55.338Z,2.60
2019-03-18T05:29:25.693Z,1.87
2019-03-18T05:31:56.916Z,2.33
2019-03-18T05:34:32.032Z,2.27
2019-03-18T05:37:05.107Z,2.27
2019-03-18T05:39:35.596Z,2.03
2019-03-18T05:42:07.518Z,3.60
2019-03-18T05:44:38.050Z,2.20
2019-03-18T05:47:38.526Z,2.83
2019-03-18T05:50:01.399Z,2.10
2019-03-18T05:52:31.878Z,2.23
2019-03-18T05:55:02.231Z,2.20
2019-03-18T05:57:33.039Z,2.50
2019-03-18T06:00:03.463Z,2.40
2019-03-18T06:02:33.873Z,2.50
2019-03-18T06:05:04.823Z,2.70
2019-03-18T06:07:35.219Z,2.40
2019-03-18T06:10:06.507Z,2.47
2019-03-18T06:12:44.304Z,2.23
2019-03-18T06:15:18.437Z,2.10
2019-03-18T06:17:52.620Z,2.17
2019-03-18T06:20:21.244Z,2.30
2019-03-18T06:22:53.303Z,1.93
2019-03-18T06:25:23.803Z,2.30
2019-03-18T06:27:54.253Z,2.13
2019-03-18T06:30:24.958Z,1.90
2019-03-18T06:32:55.500Z,2.60
2019-03-18T06:35:25.996Z,2.23
2019-03-18T06:37:56.742Z,4.70
2019-03-18T06:40:29.052Z,4.90
2019-03-18T06:42:59.887Z,2.43
2019-03-18T06:45:30.334Z,3.30
2019-03-18T06:48:05.063Z,3.30
2019-03-18T06:50:33.039Z,2.60
2019-03-18T06:53:04.295Z,4.53
2019-03-18T06:55:34.666Z,3.27
2019-03-18T06:58:05.520Z,2.70
2019-03-18T07:00:35.950Z,2.30
2019-03-18T07:03:06.324Z,2.93
2019-03-18T07:05:40.526Z,4.70
2019-03-18T07:08:10.986Z,2.57
2019-03-18T07:10:49.702Z,2.70
2019-03-18T07:13:20.661Z,2.60
2019-03-18T07:15:51.660Z,2.70
2019-03-18T07:18:22.184Z,2.40
2019-03-18T07:20:53.390Z,2.53
2019-03-18T07:23:24.260Z,3.10
2019-03-18T07:25:55.895Z,2.10
2019-03-18T07:28:26.477Z,1.80
2019-03-18T07:30:58.391Z,2.20
2019-03-18T07:33:29.014Z,2.00
2019-03-18T07:36:00.418Z,1.57
2019-03-18T07:38:30.934Z,2.03
2019-03-18T07:41:01.433Z,1.60
2019-03-18T07:43:31.875Z,1.80
2019-03-18T07:46:04.155Z,2.27
2019-03-18T07:48:34.592Z,1.90
2019-03-18T07:51:07.292Z,1.90
2019-03-18T07:53:37.744Z,2.07
2019-03-18T07:56:08.452Z,1.63
2019-03-18T07:58:39.011Z,1.50
2019-03-18T08:01:10.065Z,1.47
2019-03-18T08:03:41.066Z,1.40
2019-03-18T08:06:11.718Z,1.40
2019-03-18T08:08:45.390Z,1.40
2019-03-18T08:11:16.436Z,1.27
2019-03-18T08:13:47.029Z,1.43
2019-03-18T08:16:17.960Z,1.63
2019-03-18T08:18:53.078Z,1.77
2019-03-18T08:21:23.537Z,1.67
2019-03-18T08:23:54.256Z,1.57
2019-03-18T08:26:27.089Z,1.30
2019-03-18T08:28:56.666Z,1.30
2019-03-18T08:31:27.211Z,1.60
2019-03-18T08:33:58.967Z,1.60
2019-03-18T08:36:31.763Z,1.40
2019-03-18T08:39:04.290Z,1.43
2019-03-18T08:41:34.776Z,1.43
2019-03-18T08:44:05.339Z,1.50
2019-03-18T08:46:35.900Z,1.37
2019-03-18T08:49:06.371Z,1.43
2019-03-18T08:51:36.832Z,1.57
2019-03-18T08:54:07.625Z,1.50
2019-03-18T08:56:38.266Z,1.40
2019-03-18T08:59:08.712Z,1.50
2019-03-18T09:01:39.263Z,1.40
2019-03-18T09:04:10.691Z,2.00
2019-03-18T09:06:43.466Z,1.70
2019-03-18T09:09:14.188Z,1.70
2019-03-18T09:11:48.791Z,1.60
2019-03-18T09:14:19.459Z,1.50
2019-03-18T09:16:55.866Z,1.43
2019-03-18T09:19:26.531Z,1.27
2019-03-18T09:21:57.140Z,1.53
2019-03-18T09:24:28.268Z,1.77
2019-03-18T09:27:02.678Z,1.57
2019-03-18T09:29:34.542Z,1.50
2019-03-18T09:32:08.612Z,1.50
2019-03-18T09:34:41.323Z,1.03
2019-03-18T09:37:12.135Z,1.60
2019-03-18T09:39:46.781Z,1.13
2019-03-18T09:42:18.118Z,1.20
2019-03-18T09:44:48.963Z,1.43
2019-03-18T09:47:19.707Z,1.27
2019-03-18T09:49:50.356Z,1.03
2019-03-18T09:52:20.873Z,1.00
2019-03-18T09:54:51.621Z,1.20
2019-03-18T09:57:26.259Z,1.27
2019-03-18T09:59:55.211Z,1.20
2019-03-18T10:02:26.004Z,1.43
2019-03-18T10:04:56.648Z,1.30
2019-03-18T10:07:27.150Z,1.20
2019-03-18T10:09:57.988Z,1.20
2019-03-18T10:12:28.580Z,1.30
2019-03-18T10:14:59.934Z,1.40
2019-03-18T10:17:30.659Z,1.50
2019-03-18T10:20:09.247Z,1.93
2019-03-18T10:22:43.183Z,1.73
2019-03-18T10:25:19.327Z,1.40
2019-03-18T10:27:49.785Z,1.97
2019-03-18T10:30:25.046Z,1.43
2019-03-18T10:32:55.980Z,1.57
2019-03-18T10:35:29.370Z,1.80
2019-03-18T10:37:59.742Z,1.93
2019-03-18T10:40:30.447Z,1.67
2019-03-18T10:43:01.372Z,1.80
2019-03-18T10:45:50.525Z,1.50
2019-03-18T10:48:20.873Z,2.27
2019-03-18T10:50:51.347Z,1.70
2019-03-18T10:53:23.417Z,1.80
2019-03-18T10:55:54.259Z,1.87
2019-03-18T10:58:24.638Z,1.80
2019-03-18T11:00:55.438Z,1.60
2019-03-18T11:03:26.020Z,1.90
2019-03-18T11:05:56.892Z,2.07
2019-03-18T11:08:27.532Z,1.70
2019-03-18T11:10:58.297Z,2.80
2019-03-18T11:13:33.606Z,1.53
2019-03-18T11:16:07.127Z,1.93
2019-03-18T11:19:05.304Z,1.90
2019-03-18T11:21:36.347Z,1.80
2019-03-18T11:24:06.846Z,1.87
2019-03-18T11:26:37.406Z,1.47
2019-03-18T11:29:07.933Z,1.80
2019-03-18T11:31:38.687Z,1.80
2019-03-18T11:34:10.735Z,1.93
2019-03-18T11:36:42.776Z,1.50
2019-03-18T11:39:13.434Z,1.70
2019-03-18T11:41:50.569Z,1.73
2019-03-18T11:44:20.958Z,1.77
2019-03-18T11:46:58.643Z,1.50
2019-03-18T11:49:39.168Z,1.87
2019-03-18T11:52:07.808Z,1.53
2019-03-18T11:54:38.430Z,1.50
2019-03-18T11:57:09.231Z,1.70
2019-03-18T11:59:41.104Z,1.80
2019-03-18T12:02:11.875Z,1.80
2019-03-18T12:04:44.336Z,1.83
2019-03-18T12:07:15.011Z,1.83
2019-03-18T12:09:45.716Z,1.43
2019-03-18T12:12:19.170Z,1.70
2019-03-18T12:14:49.721Z,1.90
2019-03-18T12:17:21.073Z,1.60
2019-03-18T12:19:52.236Z,1.90
2019-03-18T12:22:22.968Z,1.70
2019-03-18T12:25:11.737Z,1.80
2019-03-18T12:27:43.767Z,1.60
2019-03-18T12:30:21.813Z,1.83
2019-03-18T12:32:52.696Z,1.63
2019-03-18T12:35:23.880Z,1.97
2019-03-18T12:37:59.964Z,1.80
2019-03-18T12:40:30.976Z,2.10
2019-03-18T12:43:04.158Z,1.87
2019-03-18T12:45:34.838Z,1.70
2019-03-18T12:48:07.496Z,1.80
2019-03-18T12:50:55.387Z,1.50
2019-03-18T12:53:13.962Z,1.40
2019-03-18T12:55:47.421Z,2.00
2019-03-18T12:58:22.613Z,1.60
2019-03-18T13:00:55.412Z,1.40
2019-03-18T13:03:26.846Z,1.27
2019-03-18T13:05:58.624Z,1.63
2019-03-18T13:08:29.577Z,1.30
2019-03-18T13:11:08.799Z,1.30
2019-03-18T13:13:35.273Z,1.80
2019-03-18T13:16:07.478Z,1.20
2019-03-18T13:18:40.768Z,1.37
2019-03-18T13:21:13.280Z,1.50
2019-03-18T13:23:45.538Z,1.30
2019-03-18T13:26:16.298Z,1.37
2019-03-18T13:28:47.257Z,1.40
2019-03-18T13:31:18.910Z,1.20
2019-03-18T13:33:49.792Z,1.20
2019-03-18T13:36:25.185Z,1.30
2019-03-18T13:39:04.449Z,1.27
2019-03-18T13:41:40.332Z,1.30
2019-03-18T13:44:23.908Z,1.50
2019-03-18T13:47:07.183Z,1.30
2019-03-18T13:49:44.068Z,1.57
2019-03-18T13:52:21.671Z,1.37
2019-03-18T13:54:57.244Z,2.50
2019-03-18T14:01:06.320Z,2.20
2019-03-18T14:37:31.154Z,1.20
2019-03-18T14:40:21.620Z,1.20
2019-03-18T14:43:56.718Z,1.40
2019-03-18T14:46:13.788Z,1.10
2019-03-18T14:48:47.629Z,1.40
2019-03-18T14:51:21.497Z,1.20
2019-03-18T14:53:57.311Z,1.10
2019-03-18T14:56:28.523Z,1.10
2019-03-18T14:59:00.316Z,1.13
2019-03-18T15:01:31.263Z,1.47
2019-03-18T15:04:02.312Z,1.20
2019-03-18T15:06:33.606Z,1.30
2019-03-18T15:09:04.187Z,1.00
2019-03-18T15:11:35.300Z,1.00
2019-03-18T15:14:06.018Z,1.00
2019-03-18T15:16:36.550Z,1.00
2019-03-18T15:19:07.147Z,0.90
2019-03-18T15:21:38.236Z,1.00
2019-03-18T15:24:16.802Z,1.00
2019-03-18T15:26:48.546Z,1.00
2019-03-18T15:29:19.076Z,1.00
2019-03-18T15:31:53.609Z,1.00
2019-03-18T15:34:26.004Z,1.10
2019-03-18T15:36:56.399Z,1.53
2019-03-18T15:39:26.942Z,1.57
2019-03-18T15:41:57.440Z,1.17
2019-03-18T15:44:29.449Z,1.10
2019-03-18T15:47:03.198Z,1.17
2019-03-18T15:49:34.030Z,1.10
2019-03-18T15:52:11.024Z,0.97
2019-03-18T15:54:53.827Z,1.10
2019-03-18T15:57:29.614Z,1.20
2019-03-18T15:59:57.332Z,1.30
2019-03-18T16:02:31.356Z,1.30
2019-03-18T16:08:28.594Z,1.65
2019-03-18T16:11:01.037Z,1.40
2019-03-18T16:13:40.475Z,1.43
2019-03-18T16:16:24.142Z,1.40
2019-03-18T16:19:05.638Z,1.17
2019-03-18T16:21:44.587Z,1.20
2019-03-18T16:24:17.226Z,1.30
2019-03-18T16:26:48.182Z,1.30
2019-03-18T16:29:31.456Z,1.17
2019-03-18T16:32:12.474Z,1.30
2019-03-18T16:34:46.108Z,1.30
2019-03-18T16:37:16.951Z,1.40
2019-03-18T16:39:48.414Z,1.50
2019-03-18T16:42:24.665Z,1.50
2019-03-18T16:44:57.959Z,1.50
2019-03-18T16:47:31.257Z,1.47
2019-03-18T16:50:01.827Z,1.30
2019-03-18T16:52:37.597Z,1.40
2019-03-18T16:55:09.249Z,1.30
2019-03-18T16:57:45.106Z,1.57
2019-03-18T17:00:29.859Z,1.43
2019-03-18T17:03:02.368Z,1.40
2019-03-18T17:05:47.626Z,1.47
2019-03-18T17:08:18.572Z,1.57
2019-03-18T17:10:50.836Z,1.40
2019-03-18T17:13:22.767Z,1.70
2019-03-18T17:15:53.611Z,1.50
2019-03-18T17:18:26.477Z,1.60
2019-03-18T17:20:59.701Z,1.70
2019-03-18T17:23:31.031Z,1.40
2019-03-18T17:26:05.690Z,1.60
2019-03-18T17:28:38.571Z,1.47
2019-03-18T17:31:09.187Z,1.50
2019-03-18T17:37:18.326Z,1.73
2019-03-18T17:40:05.411Z,1.80
2019-03-18T17:56:11.823Z,1.80
2019-03-18T17:58:50.573Z,1.80
2019-03-18T18:01:39.809Z,1.63
2019-03-18T18:04:35.845Z,2.00
2019-03-18T18:14:38.157Z,2.20
2019-03-18T18:17:43.606Z,1.90
2019-03-18T18:20:58.298Z,2.20
2019-03-18T18:23:34.909Z,2.00
2019-03-18T18:26:25.865Z,2.27
2019-03-18T18:29:39.184Z,2.30
2019-03-18T18:32:21.668Z,2.30
2019-03-18T18:38:54.016Z,2.20
2019-03-18T18:41:55.624Z,2.10
2019-03-18T18:50:26.872Z,2.00
2019-03-18T18:56:44.219Z,2.40
2019-03-18T19:07:06.973Z,2.30
2019-03-18T19:10:28.947Z,2.50
2019-03-18T19:17:43.072Z,2.60
2019-03-18T19:28:11.570Z,2.23
2019-03-18T19:31:18.131Z,2.20
2019-03-18T19:34:01.032Z,2.10
2019-03-18T19:36:47.037Z,2.20
2019-03-18T19:39:28.982Z,2.70
2019-03-18T19:42:21.123Z,2.13
2019-03-18T19:45:08.247Z,2.27
2019-03-18T19:55:18.934Z,2.20
2019-03-18T19:58:15.274Z,2.30
2019-03-18T20:18:38.715Z,2.50
2019-03-18T20:20:23.103Z,2.47
2019-03-18T20:22:57.980Z,2.43
2019-03-18T20:25:59.823Z,2.67
2019-03-18T20:29:31.416Z,2.50
2019-03-18T20:32:41.911Z,2.30
2019-03-18T20:35:57.399Z,2.83
2019-03-18T20:42:03.750Z,2.33
2019-03-18T20:45:34.196Z,2.30
2019-03-18T20:53:55.240Z,2.57
2019-03-18T20:56:44.860Z,2.33
2019-03-18T21:04:53.730Z,2.20
2019-03-18T21:08:06.739Z,2.47
2019-03-18T21:11:26.423Z,2.57
2019-03-18T21:17:11.982Z,2.50
2019-03-18T21:20:08.728Z,3.00
2019-03-18T21:22:46.245Z,2.80
2019-03-18T21:25:38.716Z,2.80
2019-03-18T21:28:41.139Z,3.07
2019-03-18T21:31:17.026Z,2.83
2019-03-18T21:33:50.555Z,2.60
2019-03-18T21:37:12.684Z,2.70
2019-03-18T21:39:56.936Z,2.87
2019-03-18T21:42:30.253Z,2.80
2019-03-18T21:45:32.944Z,3.07
2019-03-18T21:48:03.648Z,3.10
2019-03-18T21:50:34.214Z,3.23
2019-03-18T21:53:38.785Z,2.90
2019-03-18T21:56:47.440Z,2.93
2019-03-18T21:59:50.362Z,2.87
2019-03-18T22:02:34.128Z,3.00
2019-03-18T22:05:25.693Z,3.10
2019-03-18T22:08:23.824Z,3.20
2019-03-18T22:10:54.961Z,2.73
2019-03-18T22:13:25.748Z,2.97
2019-03-18T22:15:59.628Z,3.00
2019-03-18T22:18:31.567Z,3.10
2019-03-18T22:21:02.928Z,2.80
2019-03-18T22:23:36.157Z,3.00
2019-03-18T22:26:12.502Z,3.30
2019-03-18T22:28:57.034Z,2.80
2019-03-18T22:31:27.721Z,3.00
2019-03-18T22:33:58.883Z,3.10
2019-03-18T22:36:29.584Z,2.93
2019-03-18T22:39:01.492Z,2.90
2019-03-18T22:41:36.226Z,3.00
2019-03-18T22:44:14.620Z,2.80
2019-03-18T22:46:46.939Z,3.00
2019-03-18T22:49:31.362Z,3.20
2019-03-18T22:52:12.777Z,2.90
2019-03-18T22:54:43.711Z,3.20
2019-03-18T22:57:14.738Z,3.47
2019-03-18T22:59:48.285Z,3.30
2019-03-18T23:02:22.476Z,3.17
2019-03-18T23:04:52.927Z,3.17
2019-03-18T23:07:53.049Z,3.50
2019-03-18T23:10:27.243Z,3.50
2019-03-18T23:12:59.387Z,3.63
2019-03-18T23:15:36.904Z,3.40
2019-03-18T23:18:09.255Z,2.97
2019-03-18T23:20:46.212Z,3.63
2019-03-18T23:23:20.517Z,3.13
2019-03-18T23:25:57.987Z,3.20
2019-03-18T23:28:47.268Z,3.80
2019-03-18T23:31:18.131Z,3.20
2019-03-18T23:34:04.711Z,3.43
2019-03-18T23:37:02.707Z,3.17
2019-03-18T23:39:43.494Z,3.30
2019-03-18T23:42:14.366Z,3.67
2019-03-18T23:44:45.007Z,3.00
2019-03-18T23:47:16.110Z,3.10
2019-03-18T23:49:49.728Z,3.13
2019-03-18T23:52:23.544Z,3.20
2019-03-18T23:54:54.272Z,3.13
2019-03-18T23:57:24.969Z,3.30
2019-03-18T23:59:55.743Z,3.40
